createdAt,value
2023-02-13T00:00:46.773Z,101936.97
2023-02-13T00:03:14.683Z,101941.41
2023-02-13T00:05:41.836Z,101948.16
2023-02-13T00:08:08.882Z,101947.47
2023-02-13T00:10:36.693Z,101949.53
2023-02-13T00:13:03.793Z,101939.75
2023-02-13T00:15:30.927Z,101936.88
2023-02-13T00:17:57.940Z,101931.75
2023-02-13T00:20:24.946Z,101925.94
2023-02-13T00:22:51.969Z,101929.81
2023-02-13T00:25:19.107Z,101921.47
2023-02-13T00:27:46.181Z,101925.69
2023-02-13T00:30:14.135Z,101913.16
2023-02-13T00:32:41.129Z,101923.56
2023-02-13T00:35:08.337Z,101931.63
2023-02-13T00:37:35.404Z,101921.38
2023-02-13T00:40:02.546Z,101919.81
2023-02-13T00:42:29.570Z,101925.06
2023-02-13T00:44:56.669Z,101928.22
2023-02-13T00:47:23.819Z,101929.47
2023-02-13T00:49:50.889Z,101930.16
2023-02-13T00:52:17.942Z,101931.63
2023-02-13T00:54:45.007Z,101939.06
2023-02-13T00:57:11.989Z,101931.09
2023-02-13T00:59:39.024Z,101927.19
2023-02-13T01:02:06.014Z,101921.84
2023-02-13T01:04:33.043Z,101944.53
2023-02-13T01:07:00.117Z,101937.31
2023-02-13T01:09:27.179Z,101933.03
2023-02-13T01:11:54.258Z,101928.56
2023-02-13T01:14:21.354Z,101931.28
2023-02-13T01:16:48.396Z,101925.59
2023-02-13T01:19:15.702Z,101917.97
2023-02-13T01:21:44.161Z,101920.25
2023-02-13T01:24:11.693Z,101928.22
2023-02-13T01:26:39.259Z,101917.97
2023-02-13T01:29:06.693Z,101916.47
2023-02-13T01:31:34.388Z,101914.84
2023-02-13T01:34:01.513Z,101910.31
2023-02-13T01:36:28.586Z,101913.50
2023-02-13T01:38:58.220Z,101924.56
2023-02-13T01:41:27.382Z,101918.53
2023-02-13T01:44:01.004Z,101920.00
2023-02-13T01:50:39.256Z,101922.97
2023-02-13T01:53:29.786Z,101923.00
2023-02-13T01:56:29.017Z,101920.16
2023-02-13T01:59:03.331Z,101921.16
2023-02-13T02:01:32.590Z,101927.31
2023-02-13T02:04:25.518Z,101925.50
2023-02-13T02:07:07.009Z,101925.69
2023-02-13T02:09:39.502Z,101920.50
2023-02-13T02:12:18.128Z,101917.19
2023-02-13T02:14:45.429Z,101927.78
2023-02-13T02:17:12.877Z,101926.75
2023-02-13T02:19:55.340Z,101924.28
2023-02-13T02:23:28.751Z,101928.47
2023-02-13T02:26:45.521Z,101920.50
2023-02-13T02:33:00.925Z,101920.97
2023-02-13T02:36:13.234Z,101917.63
2023-02-13T02:39:06.697Z,101918.69
2023-02-13T02:41:57.659Z,101915.72
2023-02-13T02:45:05.728Z,101917.19
2023-02-13T02:48:13.377Z,101924.97
2023-02-13T02:50:59.136Z,101918.56
2023-02-13T02:53:44.446Z,101931.22
2023-02-13T02:56:31.848Z,101929.72
2023-02-13T02:59:30.882Z,101935.22
2023-02-13T03:02:17.700Z,101931.22
2023-02-13T03:05:08.272Z,101931.69
2023-02-13T03:07:35.261Z,101935.91
2023-02-13T03:10:40.202Z,101936.59
2023-02-13T03:13:23.785Z,101931.00
2023-02-13T03:16:16.176Z,101936.59
2023-02-13T03:19:09.121Z,101939.78
2023-02-13T03:22:06.286Z,101933.63
2023-02-13T03:25:12.348Z,101927.78
2023-02-13T03:28:19.119Z,101916.75
2023-02-13T03:30:57.927Z,101926.31
2023-02-13T03:34:00.006Z,101925.53
2023-02-13T03:37:08.312Z,101923.59
2023-02-13T03:39:48.775Z,101926.66
2023-02-13T03:42:42.411Z,101921.75
2023-02-13T03:45:36.114Z,101918.09
2023-02-13T03:48:27.617Z,101925.66
2023-02-13T03:50:55.514Z,101924.81
2023-02-13T03:53:24.532Z,101925.41
2023-02-13T03:56:12.186Z,101915.50
2023-02-13T03:59:07.212Z,101923.13
2023-02-13T04:01:36.276Z,101912.41
2023-02-13T04:04:11.572Z,101920.41
2023-02-13T04:07:12.060Z,101900.88
2023-02-13T04:09:42.773Z,101908.53
2023-02-13T04:12:19.924Z,101916.84
2023-02-13T04:15:02.330Z,101907.94
2023-02-13T04:17:36.069Z,101914.56
2023-02-13T04:20:03.802Z,101911.59
2023-02-13T04:22:31.409Z,101914.47
2023-02-13T04:24:58.470Z,101916.59
2023-02-13T04:27:28.426Z,101918.09
2023-02-13T04:29:55.427Z,101921.31
2023-02-13T04:32:22.460Z,101915.59
2023-02-13T04:34:49.455Z,101922.53
2023-02-13T04:37:16.477Z,101922.53
2023-02-13T04:39:43.478Z,101926.66
2023-02-13T04:42:10.477Z,101931.69
2023-02-13T04:44:37.472Z,101915.81
2023-02-13T04:47:04.555Z,101927.78
2023-02-13T04:49:31.554Z,101920.16
2023-02-13T04:51:58.580Z,101919.91
2023-02-13T04:54:25.607Z,101921.75
2023-02-13T04:56:52.649Z,101919.72
2023-02-13T04:59:19.660Z,101916.84
2023-02-13T05:01:46.746Z,101911.50
2023-02-13T05:04:16.385Z,101918.56
2023-02-13T05:06:43.711Z,101918.69
2023-02-13T05:09:11.205Z,101919.22
2023-02-13T05:11:38.239Z,101917.78
2023-02-13T05:14:05.288Z,101916.06
2023-02-13T05:16:32.486Z,101908.28
2023-02-13T05:18:59.560Z,101915.72
2023-02-13T05:21:45.360Z,101911.84
2023-02-13T05:24:12.416Z,101918.56
2023-02-13T05:26:39.446Z,101914.34
2023-02-13T05:29:23.005Z,101925.16
2023-02-13T05:31:56.153Z,101916.59
2023-02-13T05:34:25.600Z,101925.31
2023-02-13T05:36:53.047Z,101916.53
2023-02-13T05:39:20.555Z,101922.44
2023-02-13T05:41:49.598Z,101927.34
2023-02-13T05:44:17.343Z,101918.78
2023-02-13T05:46:45.274Z,101919.72
2023-02-13T05:49:14.496Z,101926.00
2023-02-13T05:51:42.547Z,101932.94
2023-02-13T05:54:09.748Z,101933.38
2023-02-13T05:56:36.799Z,101942.66
2023-02-13T05:59:04.667Z,101943.44
2023-02-13T06:01:31.796Z,101937.84
2023-02-13T06:04:00.051Z,101936.94
2023-02-13T06:06:28.175Z,101939.13
2023-02-13T06:08:55.261Z,101938.88
2023-02-13T06:11:22.501Z,101944.47
2023-02-13T06:13:49.524Z,101943.78
2023-02-13T06:16:16.761Z,101947.34
2023-02-13T06:18:44.038Z,101936.69
2023-02-13T06:21:11.087Z,101932.69
2023-02-13T06:23:38.191Z,101928.94
2023-02-13T06:26:07.605Z,101937.75
2023-02-13T06:28:35.207Z,101942.53
2023-02-13T06:31:02.749Z,101939.66
2023-02-13T06:33:30.045Z,101939.66
2023-02-13T06:35:57.362Z,101936.94
2023-02-13T06:38:24.502Z,101940.00
2023-02-13T06:40:52.026Z,101943.44
2023-02-13T06:43:19.368Z,101948.25
2023-02-13T06:45:47.305Z,101950.88
2023-02-13T06:48:14.998Z,101950.63
2023-02-13T06:50:42.102Z,101947.34
2023-02-13T06:53:09.136Z,101944.25
2023-02-13T06:55:39.380Z,101954.41
2023-02-13T06:58:06.678Z,101956.47
2023-02-13T07:00:33.813Z,101954.06
2023-02-13T07:03:06.538Z,101947.00
2023-02-13T07:05:33.872Z,101937.97
2023-02-13T07:08:00.866Z,101938.53
2023-02-13T07:10:28.064Z,101931.59
2023-02-13T07:13:05.270Z,101928.38
2023-02-13T07:15:35.230Z,101943.66
2023-02-13T07:18:02.891Z,101948.03
2023-02-13T07:20:30.361Z,101937.59
2023-02-13T07:23:06.390Z,101938.03
2023-02-13T07:25:33.513Z,101949.28
2023-02-13T07:28:06.174Z,101949.47
2023-02-13T07:30:34.841Z,101949.50
2023-02-13T07:33:04.615Z,101954.38
2023-02-13T07:35:32.304Z,101951.25
2023-02-13T07:38:00.838Z,101956.78
2023-02-13T07:40:28.697Z,101958.78
2023-02-13T07:42:56.766Z,101964.13
2023-02-13T07:45:23.840Z,101962.28
2023-02-13T07:47:50.905Z,101959.97
2023-02-13T07:50:18.208Z,101960.06
2023-02-13T07:52:45.189Z,101956.78
2023-02-13T07:55:12.761Z,101953.72
2023-02-13T07:57:39.791Z,101954.22
2023-02-13T08:00:07.876Z,101946.56
2023-02-13T08:02:34.955Z,101951.69
2023-02-13T08:05:01.975Z,101949.22
2023-02-13T08:07:28.961Z,101946.59
2023-02-13T08:10:14.367Z,101945.91
2023-02-13T08:12:41.812Z,101957.13
2023-02-13T08:15:12.943Z,101950.97
2023-02-13T08:17:39.980Z,101947.09
2023-02-13T08:20:08.854Z,101939.00
2023-02-13T08:22:40.061Z,101939.63
2023-02-13T08:25:08.301Z,101938.63
2023-02-13T08:27:35.553Z,101932.44
2023-02-13T08:30:04.091Z,101942.34
2023-02-13T08:32:35.416Z,101928.97
2023-02-13T08:35:06.803Z,101931.31
2023-02-13T08:37:34.141Z,101935.78
2023-02-13T08:40:01.158Z,101928.56
2023-02-13T08:42:28.247Z,101933.22
2023-02-13T08:44:55.267Z,101927.25
2023-02-13T08:47:22.282Z,101940.41
2023-02-13T08:49:49.279Z,101923.25
2023-02-13T08:52:16.327Z,101929.34
2023-02-13T08:54:43.393Z,101918.63
2023-02-13T08:57:10.435Z,101917.09
2023-02-13T08:59:37.454Z,101928.16
2023-02-13T09:02:04.497Z,101923.91
2023-02-13T09:04:31.619Z,101927.97
2023-02-13T09:06:58.599Z,101913.56
2023-02-13T09:09:25.602Z,101922.19
2023-02-13T09:11:53.982Z,101923.09
2023-02-13T09:14:20.970Z,101919.69
2023-02-13T09:16:47.962Z,101906.66
2023-02-13T09:19:15.157Z,101923.56
2023-02-13T09:21:42.179Z,101918.16
2023-02-13T09:24:10.572Z,101934.13
2023-02-13T09:26:37.631Z,101925.59
2023-02-13T09:29:04.835Z,101933.97
2023-02-13T09:31:32.010Z,101936.72
2023-02-13T09:33:59.094Z,101937.88
2023-02-13T09:36:26.189Z,101935.00
2023-02-13T09:38:55.561Z,101933.28
2023-02-13T09:41:31.990Z,101930.91
2023-02-13T09:44:12.006Z,101931.81
2023-02-13T09:46:41.257Z,101926.03
2023-02-13T09:49:25.027Z,101924.94
2023-02-13T09:51:56.930Z,101920.25
2023-02-13T09:54:26.679Z,101914.56
2023-02-13T09:57:25.484Z,101915.84
2023-02-13T10:00:15.619Z,101913.47
2023-02-13T10:03:11.813Z,101919.16
2023-02-13T10:06:34.867Z,101929.19
2023-02-13T10:09:11.657Z,101928.25
2023-02-13T10:12:46.074Z,101935.13
2023-02-13T10:16:02.278Z,101928.88
2023-02-13T10:18:55.598Z,101935.41
2023-02-13T10:21:30.779Z,101940.66
2023-02-13T10:24:29.800Z,101942.28
2023-02-13T10:27:01.249Z,101944.63
2023-02-13T10:30:00.260Z,101934.13
2023-02-13T10:33:11.257Z,101937.25
2023-02-13T10:35:39.512Z,101936.34
2023-02-13T10:38:23.457Z,101923.59
2023-02-13T10:41:25.782Z,101913.94
2023-02-13T10:44:10.933Z,101916.75
2023-02-13T10:47:18.544Z,101908.31
2023-02-13T10:50:32.026Z,101905.91
2023-02-13T10:53:52.376Z,101900.03
2023-02-13T10:56:44.964Z,101893.16
2023-02-13T11:00:16.072Z,101908.38
2023-02-13T11:02:43.197Z,101909.06
2023-02-13T11:05:30.194Z,101910.31
2023-02-13T11:07:59.038Z,101903.78
2023-02-13T11:10:28.140Z,101902.09
2023-02-13T11:12:55.856Z,101882.31
2023-02-13T11:15:29.753Z,101883.97
2023-02-13T11:18:19.885Z,101883.34
2023-02-13T11:20:50.578Z,101881.41
2023-02-13T11:23:38.674Z,101878.78
2023-02-13T11:26:14.715Z,101871.19
2023-02-13T11:28:52.386Z,101872.78
2023-02-13T11:31:30.932Z,101876.31
2023-02-13T11:34:00.401Z,101885.72
2023-02-13T11:36:33.693Z,101881.59
2023-02-13T11:39:17.935Z,101876.97
2023-02-13T11:41:47.811Z,101868.94
2023-02-13T11:44:32.251Z,101871.63
2023-02-13T11:47:03.242Z,101872.19
2023-02-13T11:49:41.814Z,101864.09
2023-02-13T11:52:28.292Z,101860.56
2023-02-13T11:55:06.641Z,101853.19
2023-02-13T11:57:37.379Z,101867.03
2023-02-13T12:00:37.658Z,101864.53
2023-02-13T12:03:26.779Z,101849.31
2023-02-13T12:06:15.606Z,101854.19
2023-02-13T12:08:48.223Z,101846.06
2023-02-13T12:11:39.179Z,101840.91
2023-02-13T12:14:10.715Z,101829.88
2023-02-13T12:16:50.906Z,101810.50
2023-02-13T12:19:35.961Z,101824.44
2023-02-13T12:22:34.936Z,101833.53
2023-02-13T12:25:28.974Z,101835.00
2023-02-13T12:28:52.683Z,101833.91
2023-02-13T12:32:23.220Z,101833.38
2023-02-13T12:35:18.773Z,101834.53
2023-02-13T12:38:21.762Z,101834.88
2023-02-13T12:41:14.507Z,101825.13
2023-02-13T12:44:02.481Z,101817.31
2023-02-13T12:47:04.540Z,101818.78
2023-02-13T12:50:22.691Z,101822.75
2023-02-13T12:53:03.045Z,101814.94
2023-02-13T12:55:54.210Z,101798.31
2023-02-13T12:59:00.597Z,101800.13
2023-02-13T13:01:48.563Z,101800.44
2023-02-13T13:04:37.445Z,101778.06
2023-02-13T13:07:38.355Z,101785.34
2023-02-13T13:10:17.105Z,101775.75
2023-02-13T13:12:54.589Z,101778.47
2023-02-13T13:16:02.804Z,101772.38
2023-02-13T13:18:54.735Z,101759.94
2023-02-13T13:21:53.052Z,101759.31
2023-02-13T13:24:46.180Z,101763.63
2023-02-13T13:27:28.484Z,101767.19
2023-02-13T13:30:01.897Z,101765.19
2023-02-13T13:32:31.142Z,101746.63
2023-02-13T13:34:58.850Z,101758.53
2023-02-13T13:37:43.130Z,101762.81
2023-02-13T13:40:45.832Z,101764.88
2023-02-13T13:43:33.198Z,101753.66
2023-02-13T13:46:11.828Z,101756.75
2023-02-13T13:48:57.107Z,101762.84
2023-02-13T13:51:24.591Z,101752.41
2023-02-13T13:54:03.684Z,101752.41
2023-02-13T13:57:07.516Z,101747.28
2023-02-13T13:59:34.472Z,101735.63
2023-02-13T14:02:19.666Z,101744.19
2023-02-13T14:05:32.208Z,101748.09
2023-02-13T14:08:03.607Z,101757.75
2023-02-13T14:10:30.630Z,101761.84
2023-02-13T14:12:57.706Z,101767.91
2023-02-13T14:15:44.790Z,101762.13
2023-02-13T14:18:14.490Z,101762.59
2023-02-13T14:20:59.527Z,101742.63
2023-02-13T14:23:52.699Z,101742.13
2023-02-13T14:26:35.999Z,101746.72
2023-02-13T14:29:12.048Z,101745.09
2023-02-13T14:31:43.491Z,101751.53
2023-02-13T14:34:17.041Z,101751.50
2023-02-13T14:37:00.932Z,101758.97
2023-02-13T14:39:33.549Z,101761.06
2023-02-13T14:42:03.523Z,101758.88
2023-02-13T14:44:46.605Z,101749.50
2023-02-13T14:47:42.789Z,101744.69
2023-02-13T14:50:36.315Z,101745.84
2023-02-13T14:53:16.345Z,101748.47
2023-02-13T14:55:46.636Z,101759.97
2023-02-13T14:58:35.673Z,101754.59
2023-02-13T15:01:25.917Z,101742.56
2023-02-13T15:04:10.683Z,101738.75
2023-02-13T15:06:42.766Z,101746.00
2023-02-13T15:09:22.393Z,101734.28
2023-02-13T15:11:49.904Z,101721.03
2023-02-13T15:14:33.586Z,101721.34
2023-02-13T15:17:24.803Z,101722.56
2023-02-13T15:19:56.132Z,101719.91
2023-02-13T15:22:45.207Z,101698.25
2023-02-13T15:25:37.152Z,101695.94
2023-02-13T15:28:18.645Z,101698.69
2023-02-13T15:31:01.862Z,101706.41
2023-02-13T15:33:41.615Z,101701.97
2023-02-13T15:36:23.870Z,101712.00
2023-02-13T15:39:00.631Z,101703.38
2023-02-13T15:41:43.770Z,101715.00
2023-02-13T15:44:28.175Z,101721.44
2023-02-13T15:47:14.474Z,101714.88
2023-02-13T15:49:46.664Z,101720.94
2023-02-13T15:52:36.583Z,101728.81
2023-02-13T15:55:04.544Z,101737.50
2023-02-13T15:57:33.027Z,101731.06
2023-02-13T16:00:01.603Z,101731.63
2023-02-13T16:02:45.590Z,101722.97
2023-02-13T16:05:15.229Z,101716.94
2023-02-13T16:07:58.936Z,101733.78
2023-02-13T16:10:32.682Z,101728.94
2023-02-13T16:13:04.636Z,101730.34
2023-02-13T16:15:37.084Z,101711.19
2023-02-13T16:18:06.364Z,101724.56
2023-02-13T16:20:35.059Z,101720.09
2023-02-13T16:23:07.884Z,101723.75
2023-02-13T16:25:40.700Z,101729.47
2023-02-13T16:28:21.255Z,101733.25
2023-02-13T16:31:18.082Z,101737.91
2023-02-13T16:33:46.102Z,101735.00
2023-02-13T16:36:12.987Z,101733.97
2023-02-13T16:38:50.482Z,101744.16
2023-02-13T16:41:32.225Z,101747.91
2023-02-13T16:44:21.433Z,101754.00
2023-02-13T16:46:54.067Z,101746.66
2023-02-13T16:49:24.663Z,101750.91
2023-02-13T16:51:56.962Z,101747.69
2023-02-13T16:54:34.112Z,101751.19
2023-02-13T16:57:25.604Z,101751.53
2023-02-13T17:00:22.633Z,101745.97
2023-02-13T17:02:50.891Z,101745.34
2023-02-13T17:05:29.442Z,101741.31
2023-02-13T17:07:58.755Z,101747.47
2023-02-13T17:10:35.967Z,101757.13
2023-02-13T17:13:13.354Z,101751.84
2023-02-13T17:15:47.652Z,101749.00
2023-02-13T17:18:14.718Z,101733.72
2023-02-13T17:20:45.675Z,101733.91
2023-02-13T17:23:24.892Z,101722.47
2023-02-13T17:25:53.985Z,101723.19
2023-02-13T17:28:27.836Z,101729.47
2023-02-13T17:30:58.709Z,101741.81
2023-02-13T17:33:29.602Z,101739.38
2023-02-13T17:35:57.226Z,101735.72
2023-02-13T17:38:24.647Z,101745.34
2023-02-13T17:40:51.948Z,101733.91
2023-02-13T17:43:20.779Z,101743.25
2023-02-13T17:45:49.809Z,101739.16
2023-02-13T17:48:17.433Z,101741.41
2023-02-13T17:50:44.590Z,101749.94
2023-02-13T17:53:27.683Z,101749.13
2023-02-13T17:55:54.793Z,101767.22
2023-02-13T17:58:22.197Z,101769.19
2023-02-13T18:00:49.316Z,101770.78
2023-02-13T18:03:16.331Z,101775.25
2023-02-13T18:05:43.377Z,101767.56
2023-02-13T18:08:10.514Z,101777.28
2023-02-13T18:10:39.508Z,101779.09
2023-02-13T18:13:07.227Z,101781.22
2023-02-13T18:15:39.424Z,101796.41
2023-02-13T18:18:06.618Z,101795.00
2023-02-13T18:20:33.772Z,101800.44
2023-02-13T18:23:00.847Z,101799.84
2023-02-13T18:25:29.156Z,101799.16
2023-02-13T18:27:56.375Z,101795.09
2023-02-13T18:30:23.719Z,101795.81
2023-02-13T18:32:55.664Z,101797.09
2023-02-13T18:35:23.755Z,101801.06
2023-02-13T18:37:51.697Z,101784.16
2023-02-13T18:40:18.995Z,101776.38
2023-02-13T18:42:46.259Z,101771.50
2023-02-13T18:45:13.444Z,101782.22
2023-02-13T18:47:40.484Z,101793.16
2023-02-13T18:50:09.109Z,101777.97
2023-02-13T18:52:36.651Z,101789.31
2023-02-13T18:55:07.058Z,101777.56
2023-02-13T18:57:34.859Z,101786.28
2023-02-13T19:00:02.513Z,101798.59
2023-02-13T19:02:32.387Z,101798.63
2023-02-13T19:04:59.417Z,101796.59
2023-02-13T19:07:26.440Z,101797.00
2023-02-13T19:09:53.506Z,101797.78
2023-02-13T19:12:20.508Z,101792.13
2023-02-13T19:14:48.166Z,101791.00
2023-02-13T19:17:15.208Z,101806.88
2023-02-13T19:19:45.472Z,101798.09
2023-02-13T19:22:12.492Z,101808.53
2023-02-13T19:24:39.523Z,101811.38
2023-02-13T19:27:06.525Z,101812.06
2023-02-13T19:29:33.595Z,101810.81
2023-02-13T19:32:00.770Z,101816.78
2023-02-13T19:34:27.809Z,101811.13
2023-02-13T19:36:54.808Z,101816.91
2023-02-13T19:39:21.811Z,101820.66
2023-02-13T19:41:48.818Z,101825.19
2023-02-13T19:44:16.062Z,101828.22
2023-02-13T19:46:43.458Z,101831.75
2023-02-13T19:49:11.795Z,101822.16
2023-02-13T19:51:38.897Z,101836.53
2023-02-13T19:54:08.737Z,101829.44
2023-02-13T19:56:38.572Z,101838.97
2023-02-13T19:59:10.543Z,101831.97
2023-02-13T20:01:37.856Z,101832.28
2023-02-13T20:04:04.949Z,101832.06
2023-02-13T20:06:38.706Z,101829.22
2023-02-13T20:09:10.383Z,101824.88
2023-02-13T20:11:38.159Z,101830.31
2023-02-13T20:14:05.505Z,101828.41
2023-02-13T20:16:35.593Z,101833.03
2023-02-13T20:19:09.634Z,101827.59
2023-02-13T20:21:37.832Z,101826.19
2023-02-13T20:24:05.819Z,101841.38
2023-02-13T20:26:34.119Z,101822.00
2023-02-13T20:29:01.681Z,101833.13
2023-02-13T20:31:30.140Z,101826.25
2023-02-13T20:33:58.491Z,101836.16
2023-02-13T20:36:31.284Z,101834.88
2023-02-13T20:39:02.293Z,101833.66
2023-02-13T20:41:33.480Z,101830.78
2023-02-13T20:44:04.145Z,101819.66
2023-02-13T20:46:36.871Z,101822.50
2023-02-13T20:49:04.663Z,101824.66
2023-02-13T20:51:31.803Z,101821.56
2023-02-13T20:54:00.429Z,101827.69
2023-02-13T20:56:29.002Z,101823.88
2023-02-13T20:58:59.183Z,101824.34
2023-02-13T21:01:40.521Z,101826.31
2023-02-13T21:04:11.285Z,101825.34
2023-02-13T21:06:40.088Z,101819.56
2023-02-13T21:09:09.535Z,101811.50
2023-02-13T21:11:40.062Z,101809.28
2023-02-13T21:14:07.804Z,101815.16
2023-02-13T21:16:38.875Z,101815.75
2023-02-13T21:19:16.434Z,101805.94
2023-02-13T21:21:44.943Z,101812.41
2023-02-13T21:24:16.818Z,101812.78
2023-02-13T21:26:45.854Z,101812.31
2023-02-13T21:29:13.346Z,101809.91
2023-02-13T21:31:49.144Z,101808.88
2023-02-13T21:34:18.028Z,101821.78
2023-02-13T21:36:46.082Z,101801.69
2023-02-13T21:39:14.759Z,101805.84
2023-02-13T21:41:46.658Z,101803.22
2023-02-13T21:44:15.898Z,101807.84
2023-02-13T21:46:44.980Z,101802.19
2023-02-13T21:49:18.276Z,101805.94
2023-02-13T21:51:46.109Z,101807.28
2023-02-13T21:54:13.926Z,101795.53
2023-02-13T21:56:43.114Z,101801.38
2023-02-13T21:59:15.872Z,101792.56
2023-02-13T22:01:43.586Z,101794.88
2023-02-13T22:04:11.191Z,101792.63
2023-02-13T22:06:40.556Z,101796.84
2023-02-13T22:09:14.232Z,101786.19
2023-02-13T22:11:42.730Z,101787.00
2023-02-13T22:14:17.206Z,101790.66
2023-02-13T22:16:46.149Z,101790.31
2023-02-13T22:19:16.071Z,101799.31
2023-02-13T22:21:43.992Z,101795.19
2023-02-13T22:24:11.773Z,101796.44
2023-02-13T22:26:42.747Z,101801.22
2023-02-13T22:29:14.076Z,101799.72
2023-02-13T22:31:42.319Z,101800.50
2023-02-13T22:34:13.650Z,101806.56
2023-02-13T22:36:41.983Z,101812.03
2023-02-13T22:39:10.754Z,101814.56
2023-02-13T22:41:38.504Z,101817.53
2023-02-13T22:44:05.947Z,101815.16
2023-02-13T22:46:34.655Z,101813.22
2023-02-13T22:49:02.425Z,101807.31
2023-02-13T22:51:33.491Z,101810.03
2023-02-13T22:54:01.570Z,101803.09
2023-02-13T22:56:30.497Z,101802.38
2023-02-13T22:58:58.551Z,101796.44
2023-02-13T23:01:27.786Z,101794.19
2023-02-13T23:03:56.399Z,101786.53
2023-02-13T23:06:24.258Z,101797.47
2023-02-13T23:08:54.756Z,101803.59
2023-02-13T23:11:46.602Z,101803.09
2023-02-13T23:14:15.873Z,101802.06
2023-02-13T23:17:02.160Z,101797.47
2023-02-13T23:19:30.231Z,101805.56
2023-02-13T23:21:58.155Z,101811.06
2023-02-13T23:24:25.337Z,101813.59
2023-02-13T23:26:52.352Z,101810.16
2023-02-13T23:29:20.108Z,101816.75
2023-02-13T23:31:47.382Z,101810.28
2023-02-13T23:34:14.524Z,101802.97
2023-02-13T23:36:41.619Z,101806.28
2023-02-13T23:39:08.992Z,101809.25
2023-02-13T23:41:36.116Z,101805.47
2023-02-13T23:44:03.438Z,101795.59
2023-02-13T23:46:30.674Z,101802.16
2023-02-13T23:48:57.800Z,101797.69
2023-02-13T23:51:25.760Z,101800.56
2023-02-13T23:53:56.353Z,101799.34
2023-02-13T23:56:25.175Z,101795.78
2023-02-13T23:58:53.211Z,101794.41
